createdAt,value
2022-07-30T00:00:49.206Z,2.40
2022-07-30T00:01:47.244Z,2.20
2022-07-30T00:03:08.243Z,2.80
2022-07-30T00:03:47.644Z,2.50
2022-07-30T00:04:48.066Z,2.90
2022-07-30T00:05:48.077Z,2.50
2022-07-30T00:06:47.197Z,2.70
2022-07-30T00:07:47.173Z,2.30
2022-07-30T00:08:47.186Z,2.00
2022-07-30T00:09:47.190Z,2.50
2022-07-30T00:10:47.151Z,2.20
2022-07-30T00:11:47.141Z,2.70
2022-07-30T00:12:47.126Z,3.60
2022-07-30T00:13:47.144Z,2.40
2022-07-30T00:14:47.137Z,2.40
2022-07-30T00:15:47.103Z,2.80
2022-07-30T00:16:48.224Z,2.40
2022-07-30T00:17:49.141Z,2.20
2022-07-30T00:18:47.056Z,3.30
2022-07-30T00:19:47.591Z,2.10
2022-07-30T00:20:47.052Z,2.40
2022-07-30T00:22:08.029Z,3.00
2022-07-30T00:22:47.015Z,2.90
2022-07-30T00:24:01.620Z,3.60
2022-07-30T00:24:47.988Z,2.50
2022-07-30T00:25:49.596Z,2.60
2022-07-30T00:26:47.117Z,2.70
2022-07-30T00:27:48.023Z,2.40
2022-07-30T00:28:49.584Z,2.50
2022-07-30T00:29:46.937Z,3.80
2022-07-30T00:30:46.958Z,2.30
2022-07-30T00:31:48.129Z,2.60
2022-07-30T00:32:46.906Z,2.70
2022-07-30T00:33:46.909Z,2.40
2022-07-30T00:34:47.589Z,3.00
2022-07-30T00:35:47.602Z,2.40
2022-07-30T00:36:46.883Z,2.50
2022-07-30T00:37:46.896Z,2.60
2022-07-30T00:38:46.837Z,2.60
2022-07-30T00:39:49.573Z,2.70
2022-07-30T00:40:46.816Z,2.40
2022-07-30T00:41:46.802Z,2.60
2022-07-30T00:42:46.793Z,2.80
2022-07-30T00:43:47.875Z,2.40
2022-07-30T00:45:01.589Z,2.50
2022-07-30T00:45:47.888Z,3.10
2022-07-30T00:46:46.744Z,2.60
2022-07-30T00:47:53.596Z,2.50
2022-07-30T00:48:46.816Z,2.80
2022-07-30T00:49:47.593Z,2.70
2022-07-30T00:50:46.699Z,2.40
2022-07-30T00:51:46.700Z,2.80
2022-07-30T00:52:47.598Z,2.70
2022-07-30T00:53:46.702Z,2.70
2022-07-30T00:54:46.679Z,2.50
2022-07-30T00:55:47.711Z,2.70
2022-07-30T00:56:46.640Z,2.60
2022-07-30T00:57:46.627Z,2.80
2022-07-30T00:58:50.163Z,2.70
2022-07-30T00:59:46.607Z,2.50
2022-07-30T01:00:46.624Z,2.50
2022-07-30T01:01:46.640Z,2.70
2022-07-30T01:02:46.585Z,2.50
2022-07-30T01:03:46.628Z,2.50
2022-07-30T01:04:46.565Z,3.50
2022-07-30T01:05:46.536Z,2.50
2022-07-30T01:06:46.530Z,2.40
2022-07-30T01:07:46.509Z,2.50
2022-07-30T01:08:46.503Z,2.50
2022-07-30T01:09:48.466Z,2.80
2022-07-30T01:10:46.483Z,2.80
2022-07-30T01:11:49.241Z,2.70
2022-07-30T01:12:46.457Z,2.90
2022-07-30T01:13:47.503Z,2.90
2022-07-30T01:14:46.622Z,3.00
2022-07-30T01:15:46.456Z,3.30
2022-07-30T01:16:46.466Z,3.10
2022-07-30T01:17:46.405Z,3.10
2022-07-30T01:18:47.390Z,2.70
2022-07-30T01:19:46.635Z,3.10
2022-07-30T01:20:46.398Z,2.80
2022-07-30T01:21:47.100Z,2.90
2022-07-30T01:22:47.146Z,3.40
2022-07-30T01:23:46.336Z,2.70
2022-07-30T01:24:47.349Z,3.30
2022-07-30T01:25:47.098Z,2.70
2022-07-30T01:26:46.331Z,2.90
2022-07-30T01:27:46.313Z,2.70
2022-07-30T01:28:47.345Z,2.80
2022-07-30T01:29:46.263Z,2.70
2022-07-30T01:30:46.279Z,3.10
2022-07-30T01:31:46.328Z,3.00
2022-07-30T01:32:48.128Z,2.70
2022-07-30T01:33:49.095Z,2.50
2022-07-30T01:34:46.208Z,2.70
2022-07-30T01:35:46.207Z,2.80
2022-07-30T01:36:46.195Z,2.80
2022-07-30T01:37:46.197Z,2.50
2022-07-30T01:38:46.159Z,4.10
2022-07-30T01:39:46.154Z,2.90
2022-07-30T01:40:46.156Z,2.40
2022-07-30T01:41:57.159Z,3.00
2022-07-30T01:42:46.128Z,3.80
2022-07-30T01:43:46.118Z,2.80
2022-07-30T01:44:48.596Z,3.00
2022-07-30T01:45:46.650Z,3.10
2022-07-30T01:46:46.078Z,2.70
2022-07-30T01:47:46.195Z,3.10
2022-07-30T01:48:48.694Z,3.10
2022-07-30T01:49:46.039Z,3.60
2022-07-30T01:50:47.090Z,3.00
2022-07-30T01:51:46.020Z,2.90
2022-07-30T01:52:46.026Z,3.00
2022-07-30T01:53:46.027Z,2.70
2022-07-30T01:54:46.604Z,2.90
2022-07-30T01:55:45.981Z,2.70
2022-07-30T01:56:45.971Z,2.90
2022-07-30T01:57:45.955Z,2.90
2022-07-30T01:58:46.138Z,2.60
2022-07-30T01:59:46.598Z,3.00
2022-07-30T02:00:45.984Z,3.00
2022-07-30T02:01:46.604Z,2.70
2022-07-30T02:02:46.622Z,3.00
2022-07-30T02:03:45.996Z,3.20
2022-07-30T02:04:45.876Z,3.10
2022-07-30T02:05:46.187Z,3.10
2022-07-30T02:06:45.868Z,3.40
2022-07-30T02:07:46.616Z,3.30
2022-07-30T02:08:52.606Z,3.30
2022-07-30T02:09:47.403Z,3.60
2022-07-30T02:10:46.601Z,3.60
2022-07-30T02:11:46.160Z,3.40
2022-07-30T02:12:46.632Z,3.30
2022-07-30T02:13:46.606Z,3.00
2022-07-30T02:14:45.760Z,3.00
2022-07-30T02:15:45.773Z,3.10
2022-07-30T02:16:45.834Z,3.40
2022-07-30T02:17:46.606Z,3.90
2022-07-30T02:18:45.723Z,3.20
2022-07-30T02:19:45.717Z,3.20
2022-07-30T02:20:48.772Z,3.30
2022-07-30T02:21:50.792Z,2.90
2022-07-30T02:22:46.679Z,2.90
2022-07-30T02:23:45.671Z,3.30
2022-07-30T02:24:45.652Z,3.10
2022-07-30T02:25:45.650Z,3.00
2022-07-30T02:26:45.664Z,3.20
2022-07-30T02:27:45.629Z,3.70
2022-07-30T02:28:45.612Z,3.00
2022-07-30T02:29:46.115Z,3.10
2022-07-30T02:30:45.587Z,3.40
2022-07-30T02:31:45.607Z,3.40
2022-07-30T02:32:45.594Z,3.20
2022-07-30T02:33:49.010Z,2.70
2022-07-30T02:34:45.558Z,2.80
2022-07-30T02:35:46.100Z,4.30
2022-07-30T02:36:45.540Z,4.30
2022-07-30T02:37:45.639Z,3.00
2022-07-30T02:38:45.528Z,3.10
2022-07-30T02:39:46.532Z,3.10
2022-07-30T02:40:45.484Z,3.10
2022-07-30T02:41:49.648Z,3.30
2022-07-30T02:42:45.631Z,3.40
2022-07-30T02:43:48.113Z,3.10
2022-07-30T02:44:46.107Z,3.20
2022-07-30T02:45:45.430Z,3.00
2022-07-30T02:46:45.453Z,3.00
2022-07-30T02:47:45.406Z,3.60
2022-07-30T02:48:45.466Z,3.20
2022-07-30T02:49:45.395Z,3.20
2022-07-30T02:50:46.105Z,3.50
2022-07-30T02:51:45.382Z,4.80
2022-07-30T02:52:46.384Z,3.20
2022-07-30T02:53:45.356Z,3.20
2022-07-30T02:54:45.327Z,3.40
2022-07-30T02:55:45.316Z,3.10
2022-07-30T02:56:46.116Z,3.20
2022-07-30T02:57:45.291Z,3.00
2022-07-30T02:58:45.294Z,2.90
2022-07-30T02:59:47.160Z,3.20
2022-07-30T03:00:45.304Z,2.90
2022-07-30T03:01:45.406Z,3.20
2022-07-30T03:02:45.233Z,2.80
2022-07-30T03:03:47.121Z,3.10
2022-07-30T03:04:45.213Z,3.00
2022-07-30T03:05:45.217Z,3.10
2022-07-30T03:06:45.196Z,3.10
2022-07-30T03:07:45.183Z,3.40
2022-07-30T03:08:45.187Z,3.20
2022-07-30T03:09:51.097Z,3.00
2022-07-30T03:10:46.189Z,2.90
2022-07-30T03:11:45.142Z,3.50
2022-07-30T03:12:45.125Z,3.10
2022-07-30T03:13:45.131Z,3.10
2022-07-30T03:14:45.114Z,3.50
2022-07-30T03:15:45.093Z,4.10
2022-07-30T03:16:45.138Z,3.70
2022-07-30T03:17:45.068Z,3.60
2022-07-30T03:18:45.058Z,3.20
2022-07-30T03:19:46.098Z,3.60
2022-07-30T03:20:45.041Z,3.20
2022-07-30T03:21:45.140Z,3.50
2022-07-30T03:22:45.136Z,3.30
2022-07-30T03:23:45.016Z,3.20
2022-07-30T03:24:44.996Z,4.00
2022-07-30T03:25:44.990Z,3.40
2022-07-30T03:26:45.144Z,3.50
2022-07-30T03:27:44.991Z,3.10
2022-07-30T03:28:51.611Z,3.10
2022-07-30T03:29:44.952Z,3.20
2022-07-30T03:30:44.940Z,3.50
2022-07-30T03:31:45.066Z,4.00
2022-07-30T03:32:44.910Z,3.30
2022-07-30T03:33:44.925Z,3.40
2022-07-30T03:34:45.615Z,3.70
2022-07-30T03:35:44.903Z,3.70
2022-07-30T03:36:44.866Z,3.50
2022-07-30T03:37:44.865Z,3.80
2022-07-30T03:38:45.920Z,3.30
2022-07-30T03:39:44.832Z,3.30
2022-07-30T03:40:44.827Z,3.50
2022-07-30T03:41:44.814Z,3.50
2022-07-30T03:42:44.805Z,3.70
2022-07-30T03:43:44.799Z,3.80
2022-07-30T03:44:45.648Z,3.80
2022-07-30T03:45:45.157Z,3.90
2022-07-30T03:46:44.840Z,4.40
2022-07-30T03:47:44.739Z,3.50
2022-07-30T03:48:44.761Z,3.50
2022-07-30T03:49:44.725Z,3.80
2022-07-30T03:50:45.626Z,3.80
2022-07-30T03:51:48.148Z,4.20
2022-07-30T03:52:44.730Z,3.80
2022-07-30T03:53:44.691Z,3.80
2022-07-30T03:54:45.641Z,3.50
2022-07-30T03:55:44.663Z,3.90
2022-07-30T03:56:47.617Z,4.00
2022-07-30T03:57:45.661Z,3.70
2022-07-30T03:58:45.610Z,3.70
2022-07-30T03:59:45.696Z,3.90
2022-07-30T04:00:44.604Z,3.80
2022-07-30T04:01:44.617Z,3.70
2022-07-30T04:02:45.117Z,3.70
2022-07-30T04:03:45.183Z,3.90
2022-07-30T04:04:45.116Z,4.50
2022-07-30T04:05:44.578Z,4.10
2022-07-30T04:06:44.549Z,4.10
2022-07-30T04:07:45.667Z,4.10
2022-07-30T04:08:44.535Z,3.50
2022-07-30T04:09:44.505Z,3.70
2022-07-30T04:10:44.493Z,3.80
2022-07-30T04:11:44.491Z,3.80
2022-07-30T04:12:44.495Z,4.00
2022-07-30T04:13:44.469Z,3.80
2022-07-30T04:14:44.461Z,3.70
2022-07-30T04:16:37.283Z,3.70
2022-07-30T04:16:45.509Z,3.70
2022-07-30T04:17:44.443Z,3.40
2022-07-30T04:18:45.120Z,3.80
2022-07-30T04:19:45.121Z,3.50
2022-07-30T04:20:44.396Z,4.00
2022-07-30T04:21:44.386Z,3.50
2022-07-30T04:22:45.116Z,4.20
2022-07-30T04:24:04.082Z,3.40
2022-07-30T04:24:45.345Z,3.90
2022-07-30T04:25:44.345Z,3.90
2022-07-30T04:26:45.120Z,3.90
2022-07-30T04:28:03.068Z,3.90
2022-07-30T04:28:48.617Z,3.30
2022-07-30T04:29:45.329Z,3.60
2022-07-30T04:30:44.278Z,4.00
2022-07-30T04:31:44.709Z,4.30
2022-07-30T04:32:51.123Z,4.00
2022-07-30T04:33:45.159Z,4.00
2022-07-30T04:34:44.241Z,3.80
2022-07-30T04:35:51.557Z,4.30
2022-07-30T04:36:52.120Z,4.20
2022-07-30T04:37:44.202Z,4.30
2022-07-30T04:38:44.199Z,3.90
2022-07-30T04:39:44.199Z,5.30
2022-07-30T04:40:44.179Z,4.10
2022-07-30T04:41:49.742Z,4.20
2022-07-30T04:42:44.187Z,3.70
2022-07-30T04:43:44.133Z,4.00
2022-07-30T04:44:44.180Z,4.00
2022-07-30T04:45:44.120Z,4.30
2022-07-30T04:46:44.213Z,4.70
2022-07-30T04:47:46.620Z,3.90
2022-07-30T04:48:48.204Z,4.10
2022-07-30T04:49:44.083Z,5.10
2022-07-30T04:50:44.083Z,4.30
2022-07-30T04:51:44.619Z,3.70
2022-07-30T04:52:46.625Z,4.30
2022-07-30T04:53:44.037Z,3.80
2022-07-30T04:54:44.151Z,3.70
2022-07-30T04:55:44.045Z,4.40
2022-07-30T04:56:53.062Z,4.00
2022-07-30T04:57:44.992Z,4.00
2022-07-30T04:58:44.002Z,4.00
2022-07-30T04:59:43.963Z,4.70
2022-07-30T05:00:43.957Z,4.00
2022-07-30T05:01:43.998Z,4.20
2022-07-30T05:02:46.629Z,4.80
2022-07-30T05:03:43.926Z,4.00
2022-07-30T05:04:43.894Z,4.20
2022-07-30T05:05:43.979Z,4.40
2022-07-30T05:06:44.972Z,4.30
2022-07-30T05:07:43.877Z,4.50
2022-07-30T05:08:43.881Z,4.10
2022-07-30T05:09:44.857Z,4.10
2022-07-30T05:10:43.847Z,4.40
2022-07-30T05:11:44.629Z,4.10
2022-07-30T05:12:47.118Z,4.20
2022-07-30T05:13:46.155Z,4.30
2022-07-30T05:14:48.171Z,4.50
2022-07-30T05:15:43.839Z,4.60
2022-07-30T05:16:43.780Z,4.80
2022-07-30T05:17:44.158Z,4.50
2022-07-30T05:18:43.762Z,4.10
2022-07-30T05:19:45.829Z,4.50
2022-07-30T05:20:50.624Z,4.10
2022-07-30T05:21:44.754Z,4.40
2022-07-30T05:22:50.895Z,4.40
2022-07-30T05:23:51.622Z,4.60
2022-07-30T05:24:43.698Z,4.70
2022-07-30T05:25:43.685Z,4.80
2022-07-30T05:26:44.633Z,5.60
2022-07-30T05:27:43.679Z,4.90
2022-07-30T05:28:44.645Z,4.20
2022-07-30T05:29:44.627Z,4.70
2022-07-30T05:30:44.636Z,4.90
2022-07-30T05:31:43.610Z,4.70
2022-07-30T05:32:50.132Z,4.80
2022-07-30T05:33:43.599Z,5.20
2022-07-30T05:34:43.580Z,4.80
2022-07-30T05:35:44.597Z,4.70
2022-07-30T05:36:43.584Z,5.20
2022-07-30T05:37:46.126Z,4.30
2022-07-30T05:38:43.561Z,4.70
2022-07-30T05:39:57.568Z,4.50
2022-07-30T05:40:44.515Z,4.30
2022-07-30T05:41:43.537Z,4.30
2022-07-30T05:42:43.498Z,4.60
2022-07-30T05:43:46.131Z,5.60
2022-07-30T05:44:44.492Z,4.70
2022-07-30T05:45:50.178Z,4.70
2022-07-30T05:46:43.518Z,5.10
2022-07-30T05:47:43.446Z,4.60
2022-07-30T05:48:46.175Z,4.30
2022-07-30T05:49:43.456Z,4.80
2022-07-30T05:50:43.405Z,6.50
2022-07-30T05:51:43.668Z,4.70
2022-07-30T05:52:44.126Z,4.20
2022-07-30T05:53:43.381Z,4.30
2022-07-30T05:54:43.661Z,4.60
2022-07-30T05:55:46.128Z,5.30
2022-07-30T05:56:43.345Z,4.70
2022-07-30T05:57:43.328Z,4.70
2022-07-30T05:58:44.138Z,4.40
2022-07-30T05:59:43.331Z,4.40
2022-07-30T06:00:43.289Z,4.60
2022-07-30T06:01:43.361Z,4.50
2022-07-30T06:02:44.164Z,5.00
2022-07-30T06:03:43.260Z,5.30
2022-07-30T06:04:45.990Z,4.60
2022-07-30T06:05:43.237Z,8.40
2022-07-30T06:06:43.229Z,4.70
2022-07-30T06:07:43.235Z,4.80
2022-07-30T06:08:43.229Z,5.10
2022-07-30T06:09:43.211Z,5.10
2022-07-30T06:10:43.187Z,5.30
2022-07-30T06:11:43.192Z,5.70
2022-07-30T06:12:43.189Z,5.00
2022-07-30T06:13:43.164Z,5.00
2022-07-30T06:14:43.142Z,5.10
2022-07-30T06:15:43.201Z,4.80
2022-07-30T06:16:43.113Z,4.30
2022-07-30T06:17:43.137Z,4.40
2022-07-30T06:18:43.094Z,5.00
2022-07-30T06:19:44.117Z,4.90
2022-07-30T06:20:49.628Z,5.00
2022-07-30T06:22:06.262Z,4.50
2022-07-30T06:22:44.063Z,5.10
2022-07-30T06:23:43.056Z,5.10
2022-07-30T06:24:43.058Z,4.80
2022-07-30T06:25:43.171Z,5.20
2022-07-30T06:26:43.027Z,4.70
2022-07-30T06:27:43.187Z,4.70
2022-07-30T06:28:43.176Z,4.40
2022-07-30T06:29:42.977Z,5.10
2022-07-30T06:30:43.047Z,4.40
2022-07-30T06:31:42.970Z,4.90
2022-07-30T06:32:42.943Z,5.20
2022-07-30T06:33:43.065Z,4.50
2022-07-30T06:34:42.941Z,5.00
2022-07-30T06:35:43.032Z,4.80
2022-07-30T06:36:42.935Z,4.60
2022-07-30T06:38:05.711Z,5.20
2022-07-30T06:38:44.081Z,4.50
2022-07-30T06:39:57.803Z,4.80
2022-07-30T06:40:43.861Z,4.90
2022-07-30T06:41:42.872Z,4.90
2022-07-30T06:42:42.828Z,5.00
2022-07-30T06:43:42.885Z,4.80
2022-07-30T06:44:42.830Z,4.70
2022-07-30T06:45:42.901Z,4.60
2022-07-30T06:46:42.827Z,4.70
2022-07-30T06:47:42.908Z,5.00
2022-07-30T06:48:42.810Z,5.00
2022-07-30T06:49:42.922Z,5.00
2022-07-30T06:50:42.760Z,4.40
2022-07-30T06:51:42.782Z,4.70
2022-07-30T06:52:42.719Z,4.70
2022-07-30T06:53:43.036Z,5.00
2022-07-30T06:54:42.718Z,4.30
2022-07-30T06:55:42.761Z,4.40
2022-07-30T06:56:43.164Z,4.60
2022-07-30T06:57:42.862Z,4.40
2022-07-30T06:58:42.663Z,4.40
2022-07-30T06:59:57.332Z,4.80
2022-07-30T07:00:43.690Z,4.40
2022-07-30T07:01:42.684Z,4.40
2022-07-30T07:02:43.133Z,4.30
2022-07-30T07:03:42.813Z,4.70
2022-07-30T07:04:42.631Z,4.70
2022-07-30T07:05:43.649Z,4.60
2022-07-30T07:06:42.672Z,4.90
2022-07-30T07:07:52.427Z,4.40
2022-07-30T07:08:44.142Z,4.60
2022-07-30T07:09:44.622Z,4.60
2022-07-30T07:10:43.685Z,4.40
2022-07-30T07:11:42.514Z,4.60
2022-07-30T07:12:47.842Z,4.60
2022-07-30T07:13:42.537Z,4.60
2022-07-30T07:14:42.770Z,5.10
2022-07-30T07:15:42.481Z,4.30
2022-07-30T07:16:43.338Z,5.00
2022-07-30T07:17:43.467Z,5.00
2022-07-30T07:18:42.552Z,4.60
2022-07-30T07:20:01.684Z,5.90
2022-07-30T07:20:44.140Z,4.90
2022-07-30T07:21:45.186Z,4.80
2022-07-30T07:22:45.281Z,5.00
2022-07-30T07:23:42.792Z,4.60
2022-07-30T07:24:43.144Z,4.50
2022-07-30T07:25:42.555Z,4.80
2022-07-30T07:26:43.150Z,4.90
2022-07-30T07:27:42.567Z,4.50
2022-07-30T07:28:42.325Z,4.50
2022-07-30T07:29:42.330Z,4.80
2022-07-30T07:30:43.499Z,4.60
2022-07-30T07:32:06.152Z,4.80
2022-07-30T07:32:43.421Z,4.80
2022-07-30T07:33:42.268Z,4.60
2022-07-30T07:34:42.406Z,4.90
2022-07-30T07:35:49.651Z,5.10
2022-07-30T07:36:43.237Z,4.50
2022-07-30T07:37:42.432Z,4.50
2022-07-30T07:38:42.224Z,4.80
2022-07-30T07:39:42.485Z,5.50
2022-07-30T07:40:42.188Z,4.90
2022-07-30T07:41:48.752Z,4.60
2022-07-30T07:42:44.141Z,4.90
2022-07-30T07:43:42.252Z,4.60
2022-07-30T07:44:42.151Z,4.90
2022-07-30T07:45:43.434Z,5.40
2022-07-30T07:46:42.187Z,4.50
2022-07-30T07:47:42.294Z,4.80
2022-07-30T07:48:43.146Z,4.90
2022-07-30T07:49:42.100Z,5.10
2022-07-30T07:50:42.090Z,5.30
2022-07-30T07:51:47.166Z,4.70
2022-07-30T07:52:43.086Z,4.80
2022-07-30T07:53:42.131Z,5.10
2022-07-30T07:54:42.045Z,5.30
2022-07-30T07:55:42.156Z,4.70
2022-07-30T07:56:42.036Z,4.90
2022-07-30T07:57:43.226Z,4.80
2022-07-30T07:58:41.992Z,5.00
2022-07-30T07:59:42.178Z,4.70
2022-07-30T08:00:41.972Z,5.00
2022-07-30T08:01:42.250Z,4.80
2022-07-30T08:02:42.716Z,5.70
2022-07-30T08:03:41.968Z,5.40
2022-07-30T08:04:41.930Z,5.20
2022-07-30T08:05:58.249Z,4.80
2022-07-30T08:06:43.173Z,5.00
2022-07-30T08:07:42.020Z,5.40
2022-07-30T08:08:41.885Z,5.50
2022-07-30T08:09:44.698Z,5.40
2022-07-30T08:10:41.884Z,5.30
2022-07-30T08:11:42.046Z,5.60
2022-07-30T08:12:42.177Z,5.80
2022-07-30T08:13:51.329Z,6.20
2022-07-30T08:14:42.837Z,5.60
2022-07-30T08:15:41.920Z,5.50
2022-07-30T08:16:42.693Z,5.40
2022-07-30T08:17:41.815Z,4.90
2022-07-30T08:18:41.781Z,5.30
2022-07-30T08:19:42.835Z,5.40
2022-07-30T08:20:41.740Z,5.60
2022-07-30T08:21:42.680Z,5.70
2022-07-30T08:22:41.759Z,5.10
2022-07-30T08:23:42.663Z,5.50
2022-07-30T08:24:42.656Z,5.80
2022-07-30T08:25:41.719Z,5.10
2022-07-30T08:26:42.681Z,5.40
2022-07-30T08:27:41.672Z,5.50
2022-07-30T08:28:41.663Z,5.40
2022-07-30T08:29:41.667Z,5.20
2022-07-30T08:30:41.648Z,5.50
2022-07-30T08:31:48.156Z,5.40
2022-07-30T08:32:41.646Z,4.90
2022-07-30T08:33:41.628Z,5.20
2022-07-30T08:34:41.597Z,5.10
2022-07-30T08:35:48.594Z,5.40
2022-07-30T08:36:43.151Z,6.00
2022-07-30T08:37:41.569Z,5.70
2022-07-30T08:38:41.569Z,5.60
2022-07-30T08:39:41.699Z,5.50
2022-07-30T08:40:41.537Z,5.50
2022-07-30T08:41:42.532Z,5.50
2022-07-30T08:42:41.511Z,5.10
2022-07-30T08:43:42.512Z,5.60
2022-07-30T08:44:41.500Z,5.90
2022-07-30T08:45:41.540Z,5.30
2022-07-30T08:46:41.499Z,5.30
2022-07-30T08:47:42.469Z,5.10
2022-07-30T08:48:41.540Z,4.30
2022-07-30T08:49:41.460Z,5.70
2022-07-30T08:50:41.420Z,4.90
2022-07-30T08:51:41.693Z,5.30
2022-07-30T08:52:41.399Z,5.20
2022-07-30T08:53:41.399Z,5.20
2022-07-30T08:54:41.382Z,5.30
2022-07-30T08:55:41.372Z,4.80
2022-07-30T08:56:41.443Z,4.70
2022-07-30T08:57:41.346Z,4.90
2022-07-30T08:58:42.157Z,5.10
2022-07-30T08:59:52.975Z,5.10
2022-07-30T09:00:43.165Z,5.20
2022-07-30T09:01:41.350Z,4.50
2022-07-30T09:02:41.295Z,4.50
2022-07-30T09:03:44.173Z,4.60
2022-07-30T09:04:48.160Z,5.30
2022-07-30T09:05:41.260Z,4.70
2022-07-30T09:06:41.310Z,4.40
2022-07-30T09:07:41.700Z,4.70
2022-07-30T09:08:41.284Z,5.10
2022-07-30T09:09:41.224Z,5.30
2022-07-30T09:10:52.828Z,4.40
2022-07-30T09:11:42.197Z,4.30
2022-07-30T09:12:41.216Z,4.40
2022-07-30T09:13:41.197Z,4.40
2022-07-30T09:14:41.183Z,4.80
2022-07-30T09:15:41.153Z,4.70
2022-07-30T09:16:41.175Z,4.90
2022-07-30T09:17:41.194Z,4.40
2022-07-30T09:18:41.128Z,4.40
2022-07-30T09:19:41.119Z,4.80
2022-07-30T09:20:41.106Z,4.20
2022-07-30T09:21:43.658Z,4.80
2022-07-30T09:23:02.103Z,4.40
2022-07-30T09:23:41.068Z,4.70
2022-07-30T09:24:43.665Z,4.30
2022-07-30T09:25:41.058Z,4.60
2022-07-30T09:26:43.671Z,4.30
2022-07-30T09:27:41.035Z,4.40
2022-07-30T09:28:41.186Z,4.60
2022-07-30T09:29:41.004Z,4.90
2022-07-30T09:30:40.989Z,4.40
2022-07-30T09:31:43.710Z,3.90
2022-07-30T09:32:40.970Z,4.20
2022-07-30T09:33:40.994Z,4.60
2022-07-30T09:34:41.666Z,3.90
2022-07-30T09:35:42.002Z,3.90
2022-07-30T09:36:47.663Z,4.80
2022-07-30T09:37:40.928Z,4.20
2022-07-30T09:38:40.914Z,4.00
2022-07-30T09:39:40.937Z,3.80
2022-07-30T09:40:42.951Z,4.60
2022-07-30T09:41:40.890Z,4.10
2022-07-30T09:42:47.675Z,4.10
2022-07-30T09:43:40.859Z,4.20
2022-07-30T09:44:41.907Z,4.10
2022-07-30T09:45:40.869Z,3.80
2022-07-30T09:46:41.828Z,3.80
2022-07-30T09:47:40.821Z,3.60
2022-07-30T09:48:40.868Z,4.10
2022-07-30T09:49:49.734Z,3.50
2022-07-30T09:50:40.785Z,4.00
2022-07-30T09:51:56.515Z,3.70
2022-07-30T09:52:43.860Z,3.80
2022-07-30T09:53:43.671Z,3.80
2022-07-30T09:54:40.729Z,3.80
2022-07-30T09:55:42.314Z,3.50
2022-07-30T09:56:53.985Z,3.20
2022-07-30T09:57:41.725Z,3.50
2022-07-30T09:58:45.664Z,3.40
2022-07-30T09:59:40.728Z,3.50
2022-07-30T10:00:42.310Z,3.20
2022-07-30T10:01:49.515Z,3.30
2022-07-30T10:02:41.663Z,3.40
2022-07-30T10:03:42.083Z,2.80
2022-07-30T10:04:40.630Z,3.20
2022-07-30T10:05:40.614Z,3.30
2022-07-30T10:06:41.951Z,4.00
2022-07-30T10:07:43.613Z,3.40
2022-07-30T10:08:40.584Z,3.60
2022-07-30T10:09:40.607Z,3.70
2022-07-30T10:10:47.228Z,3.40
2022-07-30T10:11:41.547Z,3.50
2022-07-30T10:12:40.567Z,3.40
2022-07-30T10:13:43.969Z,2.90
2022-07-30T10:14:42.336Z,3.10
2022-07-30T10:15:40.509Z,3.30
2022-07-30T10:16:41.174Z,3.10
2022-07-30T10:17:41.555Z,3.50
2022-07-30T10:18:40.477Z,3.20
2022-07-30T10:19:41.810Z,3.00
2022-07-30T10:20:40.914Z,3.10
2022-07-30T10:21:40.443Z,2.90
2022-07-30T10:22:40.436Z,3.20
2022-07-30T10:23:44.188Z,3.10
2022-07-30T10:24:40.417Z,3.20
2022-07-30T10:25:49.656Z,3.40
2022-07-30T10:26:41.386Z,2.80
2022-07-30T10:27:41.194Z,2.70
2022-07-30T10:28:41.202Z,2.70
2022-07-30T10:29:42.711Z,2.80
2022-07-30T10:30:40.378Z,3.40
2022-07-30T10:31:47.352Z,2.90
2022-07-30T10:32:56.170Z,2.80
2022-07-30T10:33:42.213Z,3.00
2022-07-30T10:34:42.358Z,2.90
2022-07-30T10:35:41.361Z,2.30
2022-07-30T10:36:40.298Z,1.80
2022-07-30T10:37:43.179Z,2.80
2022-07-30T10:38:41.462Z,2.30
2022-07-30T10:39:40.279Z,1.90
2022-07-30T10:40:40.236Z,2.80
2022-07-30T10:41:47.541Z,1.80
2022-07-30T10:42:41.209Z,2.30
2022-07-30T10:43:40.213Z,2.20
2022-07-30T10:44:40.640Z,3.30
2022-07-30T10:45:43.747Z,1.80
2022-07-30T10:46:41.216Z,1.90
2022-07-30T10:47:44.530Z,1.70
2022-07-30T10:48:41.149Z,2.00
2022-07-30T10:49:41.315Z,1.90
2022-07-30T10:50:40.140Z,2.50
2022-07-30T10:51:40.678Z,2.70
2022-07-30T10:52:40.146Z,1.70
2022-07-30T10:53:40.100Z,3.70
2022-07-30T10:54:40.679Z,1.80
2022-07-30T10:55:40.078Z,4.50
2022-07-30T10:56:40.071Z,2.40
2022-07-30T10:57:42.674Z,3.40
2022-07-30T10:58:40.203Z,1.60
2022-07-30T10:59:47.691Z,2.00
2022-07-30T11:00:40.118Z,2.00
2022-07-30T11:01:40.008Z,3.70
2022-07-30T11:02:40.034Z,3.40
2022-07-30T11:03:45.181Z,4.60
2022-07-30T11:04:55.685Z,4.80
2022-07-30T11:05:45.576Z,2.50
2022-07-30T11:06:40.958Z,2.20
2022-07-30T11:07:39.963Z,3.60
2022-07-30T11:08:42.642Z,1.90
2022-07-30T11:09:40.885Z,2.10
2022-07-30T11:10:43.874Z,1.70
2022-07-30T11:12:02.018Z,1.90
2022-07-30T11:12:40.898Z,1.30
2022-07-30T11:13:40.693Z,1.50
2022-07-30T11:14:40.868Z,2.00
2022-07-30T11:15:40.683Z,1.50
2022-07-30T11:16:40.750Z,2.10
2022-07-30T11:17:40.226Z,2.10
2022-07-30T11:18:39.824Z,2.70
2022-07-30T11:19:53.181Z,1.40
2022-07-30T11:20:40.819Z,2.40
2022-07-30T11:21:40.237Z,1.50
2022-07-30T11:22:39.782Z,2.80
2022-07-30T11:23:40.862Z,2.30
2022-07-30T11:24:39.791Z,1.30
2022-07-30T11:25:50.245Z,1.40
2022-07-30T11:26:41.180Z,2.40
2022-07-30T11:27:41.404Z,2.00
2022-07-30T11:28:40.686Z,1.40
2022-07-30T11:29:51.161Z,2.90
2022-07-30T11:30:40.734Z,1.60
2022-07-30T11:31:58.651Z,3.10
2022-07-30T11:32:40.672Z,2.40
2022-07-30T11:33:40.301Z,1.20
2022-07-30T11:34:41.214Z,1.90
2022-07-30T11:35:40.233Z,2.30
2022-07-30T11:36:40.205Z,4.50
2022-07-30T11:37:41.198Z,1.90
2022-07-30T11:38:40.596Z,2.40
2022-07-30T11:39:41.228Z,1.90
2022-07-30T11:40:39.625Z,1.20
2022-07-30T11:41:40.202Z,1.80
2022-07-30T11:42:40.195Z,1.40
2022-07-30T11:43:42.191Z,1.80
2022-07-30T11:44:40.197Z,1.70
2022-07-30T11:45:39.558Z,1.30
2022-07-30T11:46:40.233Z,2.00
2022-07-30T11:47:39.506Z,2.10
2022-07-30T11:48:40.221Z,1.90
2022-07-30T11:49:40.193Z,1.90
2022-07-30T11:50:40.196Z,2.90
2022-07-30T11:51:40.263Z,1.60
2022-07-30T11:52:39.450Z,2.30
2022-07-30T11:53:42.199Z,1.70
2022-07-30T11:54:40.250Z,1.10
2022-07-30T11:55:40.230Z,1.20
2022-07-30T11:56:40.259Z,1.30
2022-07-30T11:57:42.206Z,1.70
2022-07-30T11:58:42.193Z,1.50
2022-07-30T11:59:48.319Z,2.30
2022-07-30T12:00:40.262Z,2.20
2022-07-30T12:01:44.732Z,1.30
2022-07-30T12:02:54.190Z,1.20
2022-07-30T12:03:42.202Z,2.40
2022-07-30T12:04:42.248Z,1.70
2022-07-30T12:05:42.208Z,2.00
2022-07-30T12:06:42.195Z,1.90
2022-07-30T12:07:53.730Z,1.80
2022-07-30T12:08:39.275Z,2.30
2022-07-30T12:09:43.905Z,1.60
2022-07-30T12:10:40.204Z,1.30
2022-07-30T12:11:46.211Z,2.80
2022-07-30T12:12:39.256Z,2.30
2022-07-30T12:13:44.577Z,1.50
2022-07-30T12:14:42.215Z,1.30
2022-07-30T12:15:46.199Z,1.70
2022-07-30T12:16:39.217Z,2.30
2022-07-30T12:17:41.706Z,1.50
2022-07-30T12:18:41.719Z,2.00
2022-07-30T12:19:47.347Z,1.60
2022-07-30T12:20:42.702Z,2.40
2022-07-30T12:21:41.167Z,1.40
2022-07-30T12:22:39.147Z,2.40
2022-07-30T12:23:41.227Z,1.50
2022-07-30T12:24:40.426Z,2.00
2022-07-30T12:25:39.101Z,2.30
2022-07-30T12:26:40.701Z,1.90
2022-07-30T12:27:40.726Z,1.50
2022-07-30T12:28:41.152Z,1.40
2022-07-30T12:29:41.709Z,1.90
2022-07-30T12:30:41.732Z,2.50
2022-07-30T12:31:39.858Z,1.40
2022-07-30T12:32:41.704Z,1.10
2022-07-30T12:33:42.278Z,1.60
2022-07-30T12:34:41.708Z,2.10
2022-07-30T12:35:41.701Z,2.60
2022-07-30T12:36:38.983Z,1.60
2022-07-30T12:37:42.267Z,1.70
2022-07-30T12:38:38.954Z,3.00
2022-07-30T12:39:40.734Z,1.40
2022-07-30T12:40:38.942Z,1.80
2022-07-30T12:41:41.717Z,2.30
2022-07-30T12:42:38.920Z,1.70
2022-07-30T12:43:41.707Z,1.40
2022-07-30T12:44:41.770Z,1.60
2022-07-30T12:45:51.999Z,1.80
2022-07-30T12:46:40.713Z,1.10
2022-07-30T12:47:40.600Z,1.30
2022-07-30T12:48:38.873Z,2.10
2022-07-30T12:49:48.875Z,1.30
2022-07-30T12:50:40.881Z,1.40
2022-07-30T12:51:38.811Z,1.70
2022-07-30T12:52:38.812Z,1.80
2022-07-30T12:53:38.794Z,1.30
2022-07-30T12:54:38.780Z,2.50
2022-07-30T12:55:38.794Z,1.40
2022-07-30T12:56:38.758Z,1.30
2022-07-30T12:57:38.759Z,1.80
2022-07-30T12:58:38.739Z,1.20
2022-07-30T12:59:38.736Z,2.30
2022-07-30T13:00:38.720Z,1.10
2022-07-30T13:01:38.781Z,1.60
2022-07-30T13:02:38.702Z,1.60
2022-07-30T13:03:38.695Z,1.00
2022-07-30T13:04:40.168Z,0.90
2022-07-30T13:05:42.215Z,1.60
2022-07-30T13:06:38.664Z,1.30
2022-07-30T13:07:38.669Z,1.80
2022-07-30T13:08:38.701Z,1.30
2022-07-30T13:09:38.631Z,1.70
2022-07-30T13:10:38.623Z,1.10
2022-07-30T13:11:39.210Z,1.00
2022-07-30T13:12:38.601Z,0.80
2022-07-30T13:13:38.581Z,1.10
2022-07-30T13:14:38.584Z,0.90
2022-07-30T13:15:38.559Z,0.80
2022-07-30T13:16:46.219Z,0.60
2022-07-30T13:17:38.540Z,0.90
2022-07-30T13:18:40.624Z,0.90